Hovedside
METAR-TAF:

METAR-TAF

Lufthavner :

Catacamas, Honduras

breddegrad: 14-54N, lengdegrad: 085-56W, høyde over havet: 442 m

Gjeldene værobservasjon

Denne rapporten ble laget for 13 minutter siden, klokken 05:00 UTC
Vind 4 kt fra Øst
Temperatur 26°C
Luftfuktighet 74%
Trykk 1016 hPa
Sikt 10 km eller mer
Spredte skyer i en høyde av 3000 ft

METAR: MHCA 200500Z 08004KT 9999 SCT030 26/21 Q1016

Tid: 23:13 (05:13 UTC)


TAF: fraværende

Værobservasjoner og værvarsel for over 4000 flyplasser (METAR- og TAF-rapporter).

Tilgjengelige stasjoner er representert av de røde og gule prikkene på kartet.

Hold musepekeren over prikken for å se navnet på stasjonen.

Klikk så for å se værobservasjoner og -varsler.

For å forandre kartet kan du klikke på den grønne knappen med svart kryss for å zoome inn, på den grønne knappen med strek for å zoome ut, eller på de grønne pilene for å se tilstøtende kart.


METAR-TAF: